sensor_id;sensor_type;location;lat;lon;timestamp;temperature;humidity
59007;DHT22;44792;52.760;6.726;2024-02-26T00:02:18;5.00;99.90
59007;DHT22;44792;52.760;6.726;2024-02-26T00:04:44;5.00;99.90
59007;DHT22;44792;52.760;6.726;2024-02-26T00:07:10;5.00;99.90
59007;DHT22;44792;52.760;6.726;2024-02-26T00:09:35;4.90;99.90
59007;DHT22;44792;52.760;6.726;2024-02-26T00:12:03;5.00;99.90
59007;DHT22;44792;52.760;6.726;2024-02-26T00:14:31;4.90;99.90
59007;DHT22;44792;52.760;6.726;2024-02-26T00:16:57;5.00;99.90
59007;DHT22;44792;52.760;6.726;2024-02-26T00:19:23;5.00;99.90
59007;DHT22;44792;52.760;6.726;2024-02-26T00:21:48;4.90;99.90
59007;DHT22;44792;52.760;6.726;2024-02-26T00:24:14;5.00;99.90
59007;DHT22;44792;52.760;6.726;2024-02-26T00:26:40;4.90;99.90
59007;DHT22;44792;52.760;6.726;2024-02-26T00:29:05;4.90;99.90
59007;DHT22;44792;52.760;6.726;2024-02-26T00:31:31;4.90;99.90
59007;DHT22;44792;52.760;6.726;2024-02-26T00:34:00;4.90;99.90
59007;DHT22;44792;52.760;6.726;2024-02-26T00:36:26;4.90;99.90
59007;DHT22;44792;52.760;6.726;2024-02-26T00:38:51;4.90;99.90
59007;DHT22;44792;52.760;6.726;2024-02-26T00:41:18;4.80;99.90
59007;DHT22;44792;52.760;6.726;2024-02-26T00:43:44;4.90;99.90
59007;DHT22;44792;52.760;6.726;2024-02-26T00:46:10;4.90;99.90
59007;DHT22;44792;52.760;6.726;2024-02-26T00:48:35;4.90;99.90
59007;DHT22;44792;52.760;6.726;2024-02-26T00:51:02;4.90;99.90
59007;DHT22;44792;52.760;6.726;2024-02-26T00:53:31;4.90;99.90
59007;DHT22;44792;52.760;6.726;2024-02-26T00:55:56;4.90;99.90
59007;DHT22;44792;52.760;6.726;2024-02-26T00:58:24;4.90;99.90
59007;DHT22;44792;52.760;6.726;2024-02-26T01:00:50;5.00;99.90
59007;DHT22;44792;52.760;6.726;2024-02-26T01:03:17;4.90;99.90
59007;DHT22;44792;52.760;6.726;2024-02-26T01:05:43;4.90;99.90
59007;DHT22;44792;52.760;6.726;2024-02-26T01:08:09;4.90;99.90
59007;DHT22;44792;52.760;6.726;2024-02-26T01:10:35;4.90;99.90
59007;DHT22;44792;52.760;6.726;2024-02-26T01:13:01;4.80;99.90
59007;DHT22;44792;52.760;6.726;2024-02-26T01:15:27;4.80;99.90
59007;DHT22;44792;52.760;6.726;2024-02-26T01:17:53;4.80;99.90
59007;DHT22;44792;52.760;6.726;2024-02-26T01:20:19;4.80;99.90
59007;DHT22;44792;52.760;6.726;2024-02-26T01:22:45;4.80;99.90
59007;DHT22;44792;52.760;6.726;2024-02-26T01:25:10;4.70;99.90
59007;DHT22;44792;52.760;6.726;2024-02-26T01:27:37;4.70;99.90
59007;DHT22;44792;52.760;6.726;2024-02-26T01:30:03;4.70;99.90
59007;DHT22;44792;52.760;6.726;2024-02-26T01:32:32;4.70;99.90
59007;DHT22;44792;52.760;6.726;2024-02-26T01:34:58;4.70;99.90
59007;DHT22;44792;52.760;6.726;2024-02-26T01:37:23;4.70;99.90
59007;DHT22;44792;52.760;6.726;2024-02-26T01:39:49;4.60;99.90
59007;DHT22;44792;52.760;6.726;2024-02-26T01:42:15;4.70;99.90
59007;DHT22;44792;52.760;6.726;2024-02-26T01:44:40;4.70;99.90
59007;DHT22;44792;52.760;6.726;2024-02-26T01:47:08;4.70;99.90
59007;DHT22;44792;52.760;6.726;2024-02-26T01:49:36;4.60;99.90
59007;DHT22;44792;52.760;6.726;2024-02-26T01:52:03;4.70;99.90
59007;DHT22;44792;52.760;6.726;2024-02-26T01:54:30;4.70;99.90
59007;DHT22;44792;52.760;6.726;2024-02-26T01:56:57;4.70;99.90
59007;DHT22;44792;52.760;6.726;2024-02-26T01:59:23;4.70;99.90
59007;DHT22;44792;52.760;6.726;2024-02-26T02:01:54;4.70;99.90
59007;DHT22;44792;52.760;6.726;2024-02-26T02:04:20;4.70;99.90
59007;DHT22;44792;52.760;6.726;2024-02-26T02:06:47;4.70;99.90
59007;DHT22;44792;52.760;6.726;2024-02-26T02:09:13;4.60;99.90
59007;DHT22;44792;52.760;6.726;2024-02-26T02:11:39;4.60;99.90
59007;DHT22;44792;52.760;6.726;2024-02-26T02:14:05;4.60;99.90
59007;DHT22;44792;52.760;6.726;2024-02-26T02:16:31;4.60;99.90
59007;DHT22;44792;52.760;6.726;2024-02-26T02:18:58;4.60;99.90
59007;DHT22;44792;52.760;6.726;2024-02-26T02:21:24;4.60;99.90
59007;DHT22;44792;52.760;6.726;2024-02-26T02:23:50;4.60;99.90
59007;DHT22;44792;52.760;6.726;2024-02-26T02:26:16;4.50;99.90
59007;DHT22;44792;52.760;6.726;2024-02-26T02:28:42;4.60;99.90
59007;DHT22;44792;52.760;6.726;2024-02-26T02:31:09;4.50;99.90
59007;DHT22;44792;52.760;6.726;2024-02-26T02:33:35;4.50;99.90
59007;DHT22;44792;52.760;6.726;2024-02-26T02:36:01;4.50;99.90
59007;DHT22;44792;52.760;6.726;2024-02-26T02:38:26;4.50;99.90
59007;DHT22;44792;52.760;6.726;2024-02-26T02:40:55;4.50;99.90
59007;DHT22;44792;52.760;6.726;2024-02-26T02:43:21;4.50;99.90
59007;DHT22;44792;52.760;6.726;2024-02-26T02:45:46;4.50;99.90
59007;DHT22;44792;52.760;6.726;2024-02-26T02:48:12;4.50;99.90
59007;DHT22;44792;52.760;6.726;2024-02-26T02:50:39;4.40;99.90
59007;DHT22;44792;52.760;6.726;2024-02-26T02:53:04;4.50;99.90
59007;DHT22;44792;52.760;6.726;2024-02-26T02:55:30;4.50;99.90
59007;DHT22;44792;52.760;6.726;2024-02-26T02:57:56;4.40;99.90
59007;DHT22;44792;52.760;6.726;2024-02-26T03:00:22;4.40;99.90
59007;DHT22;44792;52.760;6.726;2024-02-26T03:02:50;4.40;99.90
59007;DHT22;44792;52.760;6.726;2024-02-26T03:05:16;4.40;99.90
59007;DHT22;44792;52.760;6.726;2024-02-26T03:07:42;4.40;99.90
59007;DHT22;44792;52.760;6.726;2024-02-26T03:10:08;4.40;99.90
59007;DHT22;44792;52.760;6.726;2024-02-26T03:12:34;4.40;99.90
59007;DHT22;44792;52.760;6.726;2024-02-26T03:15:00;4.40;99.90
59007;DHT22;44792;52.760;6.726;2024-02-26T03:17:29;4.40;99.90
59007;DHT22;44792;52.760;6.726;2024-02-26T03:19:54;4.40;99.90
59007;DHT22;44792;52.760;6.726;2024-02-26T03:22:20;4.40;99.90
59007;DHT22;44792;52.760;6.726;2024-02-26T03:24:46;4.40;99.90
59007;DHT22;44792;52.760;6.726;2024-02-26T03:27:12;4.40;99.90
59007;DHT22;44792;52.760;6.726;2024-02-26T03:29:38;4.40;99.90
59007;DHT22;44792;52.760;6.726;2024-02-26T03:32:05;4.40;99.90
59007;DHT22;44792;52.760;6.726;2024-02-26T03:34:32;4.30;99.90
59007;DHT22;44792;52.760;6.726;2024-02-26T03:37:00;4.40;99.90
59007;DHT22;44792;52.760;6.726;2024-02-26T03:39:26;4.40;99.90
59007;DHT22;44792;52.760;6.726;2024-02-26T03:41:55;4.30;99.90
59007;DHT22;44792;52.760;6.726;2024-02-26T03:44:20;4.40;99.90
59007;DHT22;44792;52.760;6.726;2024-02-26T03:46:46;4.30;99.90
59007;DHT22;44792;52.760;6.726;2024-02-26T03:49:12;4.30;99.90
59007;DHT22;44792;52.760;6.726;2024-02-26T03:51:39;4.30;99.90
59007;DHT22;44792;52.760;6.726;2024-02-26T03:54:04;4.30;99.90
59007;DHT22;44792;52.760;6.726;2024-02-26T03:56:30;4.30;99.90
59007;DHT22;44792;52.760;6.726;2024-02-26T03:58:56;4.30;99.90
59007;DHT22;44792;52.760;6.726;2024-02-26T04:01:22;4.30;99.90
59007;DHT22;44792;52.760;6.726;2024-02-26T04:03:48;4.30;99.90
59007;DHT22;44792;52.760;6.726;2024-02-26T04:06:14;4.30;99.90
59007;DHT22;44792;52.760;6.726;2024-02-26T04:08:40;4.30;99.90
59007;DHT22;44792;52.760;6.726;2024-02-26T04:11:06;4.30;99.90
59007;DHT22;44792;52.760;6.726;2024-02-26T04:13:36;4.30;99.90
59007;DHT22;44792;52.760;6.726;2024-02-26T04:16:06;4.30;99.90
59007;DHT22;44792;52.760;6.726;2024-02-26T04:18:32;4.30;99.90
59007;DHT22;44792;52.760;6.726;2024-02-26T04:20:58;4.30;99.90
59007;DHT22;44792;52.760;6.726;2024-02-26T04:23:24;4.30;99.90
59007;DHT22;44792;52.760;6.726;2024-02-26T04:25:50;4.40;99.90
59007;DHT22;44792;52.760;6.726;2024-02-26T04:28:16;4.30;99.90
59007;DHT22;44792;52.760;6.726;2024-02-26T04:30:42;4.30;99.90
59007;DHT22;44792;52.760;6.726;2024-02-26T04:33:07;4.30;99.90
59007;DHT22;44792;52.760;6.726;2024-02-26T04:35:33;4.40;99.90
59007;DHT22;44792;52.760;6.726;2024-02-26T04:38:01;4.40;99.90
59007;DHT22;44792;52.760;6.726;2024-02-26T04:40:26;4.40;99.90
59007;DHT22;44792;52.760;6.726;2024-02-26T04:42:52;4.40;99.90
59007;DHT22;44792;52.760;6.726;2024-02-26T04:45:18;4.40;99.90
59007;DHT22;44792;52.760;6.726;2024-02-26T04:47:43;4.40;99.90
59007;DHT22;44792;52.760;6.726;2024-02-26T04:50:09;4.40;99.90
59007;DHT22;44792;52.760;6.726;2024-02-26T04:52:35;4.40;99.90
59007;DHT22;44792;52.760;6.726;2024-02-26T04:55:02;4.40;99.90
59007;DHT22;44792;52.760;6.726;2024-02-26T04:57:28;4.50;99.90
59007;DHT22;44792;52.760;6.726;2024-02-26T04:59:53;4.50;99.90
59007;DHT22;44792;52.760;6.726;2024-02-26T05:02:19;4.50;99.90
59007;DHT22;44792;52.760;6.726;2024-02-26T05:04:45;4.50;99.90
59007;DHT22;44792;52.760;6.726;2024-02-26T05:07:10;4.50;99.90
59007;DHT22;44792;52.760;6.726;2024-02-26T05:09:37;4.50;99.90
59007;DHT22;44792;52.760;6.726;2024-02-26T05:12:03;4.50;99.90
59007;DHT22;44792;52.760;6.726;2024-02-26T05:14:29;4.50;99.90
59007;DHT22;44792;52.760;6.726;2024-02-26T05:16:55;4.50;99.90
59007;DHT22;44792;52.760;6.726;2024-02-26T05:19:21;4.50;99.90
59007;DHT22;44792;52.760;6.726;2024-02-26T05:21:47;4.50;99.90
59007;DHT22;44792;52.760;6.726;2024-02-26T05:24:14;4.50;99.90
59007;DHT22;44792;52.760;6.726;2024-02-26T05:26:43;4.50;99.90
59007;DHT22;44792;52.760;6.726;2024-02-26T05:29:09;4.50;99.90
59007;DHT22;44792;52.760;6.726;2024-02-26T05:31:35;4.60;99.90
59007;DHT22;44792;52.760;6.726;2024-02-26T05:34:01;4.60;99.90
59007;DHT22;44792;52.760;6.726;2024-02-26T05:36:27;4.50;99.90
59007;DHT22;44792;52.760;6.726;2024-02-26T05:38:54;4.70;99.90
59007;DHT22;44792;52.760;6.726;2024-02-26T05:41:20;4.60;99.90
59007;DHT22;44792;52.760;6.726;2024-02-26T05:43:54;4.60;99.90
59007;DHT22;44792;52.760;6.726;2024-02-26T05:46:21;4.50;99.90
59007;DHT22;44792;52.760;6.726;2024-02-26T05:48:48;4.60;99.90
59007;DHT22;44792;52.760;6.726;2024-02-26T05:51:17;4.60;99.90
59007;DHT22;44792;52.760;6.726;2024-02-26T05:53:43;4.50;99.90
59007;DHT22;44792;52.760;6.726;2024-02-26T05:56:09;4.50;99.90
59007;DHT22;44792;52.760;6.726;2024-02-26T05:58:35;4.60;99.90
59007;DHT22;44792;52.760;6.726;2024-02-26T06:01:00;4.50;99.90
59007;DHT22;44792;52.760;6.726;2024-02-26T06:03:26;4.50;99.90
59007;DHT22;44792;52.760;6.726;2024-02-26T06:05:52;4.50;99.90
59007;DHT22;44792;52.760;6.726;2024-02-26T06:08:18;4.50;99.90
59007;DHT22;44792;52.760;6.726;2024-02-26T06:10:44;4.50;99.90
59007;DHT22;44792;52.760;6.726;2024-02-26T06:13:10;4.40;99.90
59007;DHT22;44792;52.760;6.726;2024-02-26T06:15:35;4.50;99.90
59007;DHT22;44792;52.760;6.726;2024-02-26T06:18:01;4.40;99.90
59007;DHT22;44792;52.760;6.726;2024-02-26T06:20:27;4.40;99.90
59007;DHT22;44792;52.760;6.726;2024-02-26T06:22:52;4.40;99.90
59007;DHT22;44792;52.760;6.726;2024-02-26T06:25:18;4.40;99.90
59007;DHT22;44792;52.760;6.726;2024-02-26T06:27:44;4.40;99.90
59007;DHT22;44792;52.760;6.726;2024-02-26T06:30:10;4.40;99.90
59007;DHT22;44792;52.760;6.726;2024-02-26T06:32:37;4.30;99.90
59007;DHT22;44792;52.760;6.726;2024-02-26T06:35:03;4.30;99.90
59007;DHT22;44792;52.760;6.726;2024-02-26T06:37:34;4.40;99.90
59007;DHT22;44792;52.760;6.726;2024-02-26T06:40:00;4.40;99.90
59007;DHT22;44792;52.760;6.726;2024-02-26T06:42:30;4.40;99.90
59007;DHT22;44792;52.760;6.726;2024-02-26T06:44:56;4.40;99.90
59007;DHT22;44792;52.760;6.726;2024-02-26T06:47:22;4.40;99.90
59007;DHT22;44792;52.760;6.726;2024-02-26T06:49:47;4.40;99.90
59007;DHT22;44792;52.760;6.726;2024-02-26T06:52:13;4.40;99.90
59007;DHT22;44792;52.760;6.726;2024-02-26T06:54:39;4.40;99.90
59007;DHT22;44792;52.760;6.726;2024-02-26T06:57:04;4.40;99.90
59007;DHT22;44792;52.760;6.726;2024-02-26T06:59:30;4.50;99.90
59007;DHT22;44792;52.760;6.726;2024-02-26T07:01:56;4.50;99.90
59007;DHT22;44792;52.760;6.726;2024-02-26T07:04:21;4.50;99.90
59007;DHT22;44792;52.760;6.726;2024-02-26T07:06:47;4.50;99.90
59007;DHT22;44792;52.760;6.726;2024-02-26T07:09:13;4.50;99.90
59007;DHT22;44792;52.760;6.726;2024-02-26T07:11:39;4.60;99.90
59007;DHT22;44792;52.760;6.726;2024-02-26T07:14:11;4.50;99.90
59007;DHT22;44792;52.760;6.726;2024-02-26T07:16:37;4.50;99.90
59007;DHT22;44792;52.760;6.726;2024-02-26T07:19:04;4.50;99.90
59007;DHT22;44792;52.760;6.726;2024-02-26T07:21:29;4.50;99.90
59007;DHT22;44792;52.760;6.726;2024-02-26T07:23:56;4.60;99.90
59007;DHT22;44792;52.760;6.726;2024-02-26T07:26:21;4.50;99.90
59007;DHT22;44792;52.760;6.726;2024-02-26T07:28:49;4.50;99.90
59007;DHT22;44792;52.760;6.726;2024-02-26T07:31:17;4.50;99.90
59007;DHT22;44792;52.760;6.726;2024-02-26T07:33:42;4.50;99.90
59007;DHT22;44792;52.760;6.726;2024-02-26T07:36:08;4.60;99.90
59007;DHT22;44792;52.760;6.726;2024-02-26T07:38:34;4.60;99.90
59007;DHT22;44792;52.760;6.726;2024-02-26T07:41:01;4.50;99.90
59007;DHT22;44792;52.760;6.726;2024-02-26T07:43:28;4.60;99.90
59007;DHT22;44792;52.760;6.726;2024-02-26T07:45:53;4.60;99.90
59007;DHT22;44792;52.760;6.726;2024-02-26T07:48:19;4.60;99.90
59007;DHT22;44792;52.760;6.726;2024-02-26T07:50:45;4.50;99.90
59007;DHT22;44792;52.760;6.726;2024-02-26T07:53:10;4.60;99.90
59007;DHT22;44792;52.760;6.726;2024-02-26T07:55:36;4.60;99.90
59007;DHT22;44792;52.760;6.726;2024-02-26T07:58:02;4.60;99.90
59007;DHT22;44792;52.760;6.726;2024-02-26T08:00:28;4.70;99.90
59007;DHT22;44792;52.760;6.726;2024-02-26T08:02:54;4.70;99.90
59007;DHT22;44792;52.760;6.726;2024-02-26T08:05:19;4.70;99.90
59007;DHT22;44792;52.760;6.726;2024-02-26T08:07:45;4.70;99.90
59007;DHT22;44792;52.760;6.726;2024-02-26T08:10:11;4.70;99.90
59007;DHT22;44792;52.760;6.726;2024-02-26T08:12:37;4.70;99.90
59007;DHT22;44792;52.760;6.726;2024-02-26T08:15:03;4.80;99.90
59007;DHT22;44792;52.760;6.726;2024-02-26T08:17:28;4.70;99.90
59007;DHT22;44792;52.760;6.726;2024-02-26T08:19:54;4.70;99.90
59007;DHT22;44792;52.760;6.726;2024-02-26T08:22:20;4.70;99.90
59007;DHT22;44792;52.760;6.726;2024-02-26T08:24:45;4.80;99.90
59007;DHT22;44792;52.760;6.726;2024-02-26T08:27:11;4.80;99.90
59007;DHT22;44792;52.760;6.726;2024-02-26T08:29:37;4.70;99.90
59007;DHT22;44792;52.760;6.726;2024-02-26T08:32:03;4.70;99.90
59007;DHT22;44792;52.760;6.726;2024-02-26T08:34:29;4.80;99.90
59007;DHT22;44792;52.760;6.726;2024-02-26T08:36:55;4.80;99.90
59007;DHT22;44792;52.760;6.726;2024-02-26T08:39:20;4.80;99.90
59007;DHT22;44792;52.760;6.726;2024-02-26T08:41:46;4.70;99.90
59007;DHT22;44792;52.760;6.726;2024-02-26T08:44:12;4.80;99.90
59007;DHT22;44792;52.760;6.726;2024-02-26T08:46:37;4.80;99.90
59007;DHT22;44792;52.760;6.726;2024-02-26T08:49:04;4.90;99.90
59007;DHT22;44792;52.760;6.726;2024-02-26T08:51:30;4.80;99.90
59007;DHT22;44792;52.760;6.726;2024-02-26T08:53:56;4.80;99.90
59007;DHT22;44792;52.760;6.726;2024-02-26T08:56:22;4.80;99.90
59007;DHT22;44792;52.760;6.726;2024-02-26T08:58:48;4.90;99.90
59007;DHT22;44792;52.760;6.726;2024-02-26T09:01:15;4.90;99.90
59007;DHT22;44792;52.760;6.726;2024-02-26T09:03:40;4.90;99.90
59007;DHT22;44792;52.760;6.726;2024-02-26T09:06:06;4.90;99.90
59007;DHT22;44792;52.760;6.726;2024-02-26T09:08:35;4.90;99.90
59007;DHT22;44792;52.760;6.726;2024-02-26T09:11:02;4.90;99.90
59007;DHT22;44792;52.760;6.726;2024-02-26T09:13:29;4.90;99.90
59007;DHT22;44792;52.760;6.726;2024-02-26T09:15:54;4.90;99.90
59007;DHT22;44792;52.760;6.726;2024-02-26T09:18:20;4.90;99.90
59007;DHT22;44792;52.760;6.726;2024-02-26T09:20:46;4.90;99.90
59007;DHT22;44792;52.760;6.726;2024-02-26T09:23:12;4.90;99.90
59007;DHT22;44792;52.760;6.726;2024-02-26T09:25:38;4.90;99.90
59007;DHT22;44792;52.760;6.726;2024-02-26T09:28:04;4.90;99.90
59007;DHT22;44792;52.760;6.726;2024-02-26T09:30:29;4.90;99.90
59007;DHT22;44792;52.760;6.726;2024-02-26T09:32:55;4.90;99.90
59007;DHT22;44792;52.760;6.726;2024-02-26T09:35:21;5.00;99.90
59007;DHT22;44792;52.760;6.726;2024-02-26T09:37:47;5.00;99.90
59007;DHT22;44792;52.760;6.726;2024-02-26T09:40:14;5.00;99.90
59007;DHT22;44792;52.760;6.726;2024-02-26T09:42:45;5.00;99.90
59007;DHT22;44792;52.760;6.726;2024-02-26T09:45:18;5.00;99.90
59007;DHT22;44792;52.760;6.726;2024-02-26T09:47:44;5.00;99.90
59007;DHT22;44792;52.760;6.726;2024-02-26T09:50:11;4.90;99.90
59007;DHT22;44792;52.760;6.726;2024-02-26T09:52:41;5.00;99.90
59007;DHT22;44792;52.760;6.726;2024-02-26T09:55:08;5.00;99.90
59007;DHT22;44792;52.760;6.726;2024-02-26T09:57:37;5.00;99.90
59007;DHT22;44792;52.760;6.726;2024-02-26T10:00:04;5.00;99.90
59007;DHT22;44792;52.760;6.726;2024-02-26T10:02:35;5.00;99.90
59007;DHT22;44792;52.760;6.726;2024-02-26T10:05:03;5.00;99.90
59007;DHT22;44792;52.760;6.726;2024-02-26T10:07:30;5.00;99.90
59007;DHT22;44792;52.760;6.726;2024-02-26T10:09:57;5.10;99.90
59007;DHT22;44792;52.760;6.726;2024-02-26T10:12:23;5.10;99.90
59007;DHT22;44792;52.760;6.726;2024-02-26T10:14:51;5.10;99.90
59007;DHT22;44792;52.760;6.726;2024-02-26T10:17:17;5.10;99.90
59007;DHT22;44792;52.760;6.726;2024-02-26T10:19:44;5.10;99.90
59007;DHT22;44792;52.760;6.726;2024-02-26T10:22:10;5.10;99.90
59007;DHT22;44792;52.760;6.726;2024-02-26T10:24:36;5.10;99.90
59007;DHT22;44792;52.760;6.726;2024-02-26T10:27:02;5.20;99.90
59007;DHT22;44792;52.760;6.726;2024-02-26T10:29:28;5.20;99.90
59007;DHT22;44792;52.760;6.726;2024-02-26T10:31:54;5.20;99.90
59007;DHT22;44792;52.760;6.726;2024-02-26T10:34:20;5.20;99.90
59007;DHT22;44792;52.760;6.726;2024-02-26T10:36:46;5.20;99.90
59007;DHT22;44792;52.760;6.726;2024-02-26T10:39:13;5.30;99.90
59007;DHT22;44792;52.760;6.726;2024-02-26T10:41:43;5.30;99.90
59007;DHT22;44792;52.760;6.726;2024-02-26T10:44:12;5.30;99.90
59007;DHT22;44792;52.760;6.726;2024-02-26T10:46:41;5.40;99.90
59007;DHT22;44792;52.760;6.726;2024-02-26T10:49:13;5.40;99.90
59007;DHT22;44792;52.760;6.726;2024-02-26T10:51:44;5.40;99.90
59007;DHT22;44792;52.760;6.726;2024-02-26T10:54:12;5.50;99.90
59007;DHT22;44792;52.760;6.726;2024-02-26T10:56:42;5.50;99.90
59007;DHT22;44792;52.760;6.726;2024-02-26T10:59:10;5.50;99.90
59007;DHT22;44792;52.760;6.726;2024-02-26T11:01:39;5.40;99.90
59007;DHT22;44792;52.760;6.726;2024-02-26T11:04:08;5.50;99.90
59007;DHT22;44792;52.760;6.726;2024-02-26T11:06:34;5.50;99.90
59007;DHT22;44792;52.760;6.726;2024-02-26T11:09:01;5.50;99.90
59007;DHT22;44792;52.760;6.726;2024-02-26T11:11:30;5.50;99.90
59007;DHT22;44792;52.760;6.726;2024-02-26T11:13:57;5.50;99.90
59007;DHT22;44792;52.760;6.726;2024-02-26T11:16:24;5.60;99.90
59007;DHT22;44792;52.760;6.726;2024-02-26T11:18:52;5.70;99.90
59007;DHT22;44792;52.760;6.726;2024-02-26T11:21:21;5.60;99.90
59007;DHT22;44792;52.760;6.726;2024-02-26T11:23:56;5.70;99.90
59007;DHT22;44792;52.760;6.726;2024-02-26T11:26:23;5.70;99.90
59007;DHT22;44792;52.760;6.726;2024-02-26T11:28:51;5.80;99.90
59007;DHT22;44792;52.760;6.726;2024-02-26T11:31:17;5.80;99.90
59007;DHT22;44792;52.760;6.726;2024-02-26T11:33:51;5.80;99.90
59007;DHT22;44792;52.760;6.726;2024-02-26T11:36:17;5.80;99.90
59007;DHT22;44792;52.760;6.726;2024-02-26T11:38:44;5.90;99.90
59007;DHT22;44792;52.760;6.726;2024-02-26T11:41:09;5.80;99.90
59007;DHT22;44792;52.760;6.726;2024-02-26T11:43:57;5.90;99.90
59007;DHT22;44792;52.760;6.726;2024-02-26T11:46:28;6.00;99.90
59007;DHT22;44792;52.760;6.726;2024-02-26T11:48:59;6.00;99.90
59007;DHT22;44792;52.760;6.726;2024-02-26T11:51:27;6.00;99.90
59007;DHT22;44792;52.760;6.726;2024-02-26T11:53:54;6.00;99.90
59007;DHT22;44792;52.760;6.726;2024-02-26T11:56:22;6.00;99.90
59007;DHT22;44792;52.760;6.726;2024-02-26T11:58:53;6.00;99.90
59007;DHT22;44792;52.760;6.726;2024-02-26T12:01:43;6.00;99.90
59007;DHT22;44792;52.760;6.726;2024-02-26T12:09:29;6.00;99.90
59007;DHT22;44792;52.760;6.726;2024-02-26T12:11:55;6.10;99.90
59007;DHT22;44792;52.760;6.726;2024-02-26T12:14:25;6.00;99.90
59007;DHT22;44792;52.760;6.726;2024-02-26T12:16:52;6.00;99.90
59007;DHT22;44792;52.760;6.726;2024-02-26T12:19:18;6.00;99.90
59007;DHT22;44792;52.760;6.726;2024-02-26T12:21:44;6.00;99.90
59007;DHT22;44792;52.760;6.726;2024-02-26T12:24:11;6.00;99.90
59007;DHT22;44792;52.760;6.726;2024-02-26T12:26:40;6.00;99.90
59007;DHT22;44792;52.760;6.726;2024-02-26T12:29:06;6.10;99.90
59007;DHT22;44792;52.760;6.726;2024-02-26T12:31:33;6.10;99.90
59007;DHT22;44792;52.760;6.726;2024-02-26T12:34:00;6.10;99.90
59007;DHT22;44792;52.760;6.726;2024-02-26T12:36:26;6.00;99.90
59007;DHT22;44792;52.760;6.726;2024-02-26T12:38:52;6.00;99.90
59007;DHT22;44792;52.760;6.726;2024-02-26T12:41:18;6.10;99.90
59007;DHT22;44792;52.760;6.726;2024-02-26T12:43:44;6.10;99.90
59007;DHT22;44792;52.760;6.726;2024-02-26T12:46:10;6.00;99.90
59007;DHT22;44792;52.760;6.726;2024-02-26T12:48:36;6.10;99.90
59007;DHT22;44792;52.760;6.726;2024-02-26T12:51:03;6.10;99.90
59007;DHT22;44792;52.760;6.726;2024-02-26T12:53:30;6.10;99.90
59007;DHT22;44792;52.760;6.726;2024-02-26T12:55:56;6.10;99.90
59007;DHT22;44792;52.760;6.726;2024-02-26T12:58:22;6.10;99.90
59007;DHT22;44792;52.760;6.726;2024-02-26T13:00:54;6.10;99.90
59007;DHT22;44792;52.760;6.726;2024-02-26T13:03:21;6.10;99.90
59007;DHT22;44792;52.760;6.726;2024-02-26T13:05:48;6.00;99.90
59007;DHT22;44792;52.760;6.726;2024-02-26T13:08:18;6.00;99.90
59007;DHT22;44792;52.760;6.726;2024-02-26T13:10:45;6.10;99.90
59007;DHT22;44792;52.760;6.726;2024-02-26T13:13:11;6.10;99.90
59007;DHT22;44792;52.760;6.726;2024-02-26T13:15:39;6.10;99.90
59007;DHT22;44792;52.760;6.726;2024-02-26T13:18:14;6.10;99.90
59007;DHT22;44792;52.760;6.726;2024-02-26T13:20:41;6.10;99.90
59007;DHT22;44792;52.760;6.726;2024-02-26T13:23:08;6.00;99.90
59007;DHT22;44792;52.760;6.726;2024-02-26T13:25:34;6.10;99.90
59007;DHT22;44792;52.760;6.726;2024-02-26T13:28:14;6.10;99.90
59007;DHT22;44792;52.760;6.726;2024-02-26T13:30:41;6.10;99.90
59007;DHT22;44792;52.760;6.726;2024-02-26T13:33:09;6.10;99.90
59007;DHT22;44792;52.760;6.726;2024-02-26T13:35:35;6.10;99.90
59007;DHT22;44792;52.760;6.726;2024-02-26T13:38:02;6.10;99.90
59007;DHT22;44792;52.760;6.726;2024-02-26T13:40:28;6.10;99.90
59007;DHT22;44792;52.760;6.726;2024-02-26T13:42:54;6.10;99.90
59007;DHT22;44792;52.760;6.726;2024-02-26T13:45:20;6.10;99.90
59007;DHT22;44792;52.760;6.726;2024-02-26T13:47:46;6.10;99.90
59007;DHT22;44792;52.760;6.726;2024-02-26T13:50:11;6.10;99.90
59007;DHT22;44792;52.760;6.726;2024-02-26T13:52:37;6.10;99.90
59007;DHT22;44792;52.760;6.726;2024-02-26T13:55:03;6.10;99.90
59007;DHT22;44792;52.760;6.726;2024-02-26T13:57:29;6.10;99.90
59007;DHT22;44792;52.760;6.726;2024-02-26T13:59:55;6.10;99.90
59007;DHT22;44792;52.760;6.726;2024-02-26T14:02:21;6.10;99.90
59007;DHT22;44792;52.760;6.726;2024-02-26T14:04:47;6.10;99.90
59007;DHT22;44792;52.760;6.726;2024-02-26T14:07:13;6.10;99.90
59007;DHT22;44792;52.760;6.726;2024-02-26T14:09:39;6.00;99.90
59007;DHT22;44792;52.760;6.726;2024-02-26T14:12:05;6.00;99.90
59007;DHT22;44792;52.760;6.726;2024-02-26T14:14:31;6.00;99.90
59007;DHT22;44792;52.760;6.726;2024-02-26T14:17:01;6.00;99.90
59007;DHT22;44792;52.760;6.726;2024-02-26T14:19:28;5.90;99.90
59007;DHT22;44792;52.760;6.726;2024-02-26T14:21:54;5.90;99.90
59007;DHT22;44792;52.760;6.726;2024-02-26T14:24:19;5.90;99.90
59007;DHT22;44792;52.760;6.726;2024-02-26T14:26:45;6.00;99.90
59007;DHT22;44792;52.760;6.726;2024-02-26T14:29:11;5.80;99.90
59007;DHT22;44792;52.760;6.726;2024-02-26T14:31:37;5.90;99.90
59007;DHT22;44792;52.760;6.726;2024-02-26T14:34:03;5.90;99.90
59007;DHT22;44792;52.760;6.726;2024-02-26T14:36:28;5.90;99.90
59007;DHT22;44792;52.760;6.726;2024-02-26T14:38:54;5.80;99.90
59007;DHT22;44792;52.760;6.726;2024-02-26T14:41:20;5.90;99.90
59007;DHT22;44792;52.760;6.726;2024-02-26T14:43:46;5.80;99.90
59007;DHT22;44792;52.760;6.726;2024-02-26T14:46:12;5.80;99.90
59007;DHT22;44792;52.760;6.726;2024-02-26T14:48:37;5.80;99.90
59007;DHT22;44792;52.760;6.726;2024-02-26T14:51:03;5.80;99.90
59007;DHT22;44792;52.760;6.726;2024-02-26T14:53:31;5.80;99.90
59007;DHT22;44792;52.760;6.726;2024-02-26T14:55:57;5.80;99.90
59007;DHT22;44792;52.760;6.726;2024-02-26T14:58:26;5.80;99.90
59007;DHT22;44792;52.760;6.726;2024-02-26T15:00:52;5.80;99.90
59007;DHT22;44792;52.760;6.726;2024-02-26T15:03:17;5.70;99.90
59007;DHT22;44792;52.760;6.726;2024-02-26T15:05:43;5.80;99.90
59007;DHT22;44792;52.760;6.726;2024-02-26T15:08:09;5.80;99.90
59007;DHT22;44792;52.760;6.726;2024-02-26T15:10:35;5.80;99.90
59007;DHT22;44792;52.760;6.726;2024-02-26T15:13:01;5.80;99.90
59007;DHT22;44792;52.760;6.726;2024-02-26T15:15:27;5.80;99.90
59007;DHT22;44792;52.760;6.726;2024-02-26T15:17:53;5.80;99.90
59007;DHT22;44792;52.760;6.726;2024-02-26T15:20:18;5.80;99.90
59007;DHT22;44792;52.760;6.726;2024-02-26T15:22:44;5.80;99.90
59007;DHT22;44792;52.760;6.726;2024-02-26T15:25:10;5.80;99.90
59007;DHT22;44792;52.760;6.726;2024-02-26T15:27:36;5.70;99.90
59007;DHT22;44792;52.760;6.726;2024-02-26T15:30:02;5.70;99.90
59007;DHT22;44792;52.760;6.726;2024-02-26T15:32:28;5.70;99.90
59007;DHT22;44792;52.760;6.726;2024-02-26T15:34:54;5.70;99.90
59007;DHT22;44792;52.760;6.726;2024-02-26T15:37:20;5.70;99.90
59007;DHT22;44792;52.760;6.726;2024-02-26T15:39:46;5.70;99.90
59007;DHT22;44792;52.760;6.726;2024-02-26T15:42:12;5.70;99.90
59007;DHT22;44792;52.760;6.726;2024-02-26T15:44:38;5.70;99.90
59007;DHT22;44792;52.760;6.726;2024-02-26T15:47:05;5.60;99.90